Flight Track Log - Related Links

Times and Time Zones

All times are in EDT time to prevent confusion due to time zone crossing. See the AWE1454 flight status page for this flight to view local times or setup timezone preferences in your user account.

Time Position Orientation Groundspeed Altitude Reporting Facility
EDT Latitude Longitude Course Direction KTS MPH feet Rate Location/Type
Fri 01:00:36 PM 33.6333 -84.4000 53° Northeast 147 169 2,400  Level Atlanta TRACON
Fri 01:01:36 PM 33.6333 -84.3333 90° East 203 234 3,800 2,200 Climbing Atlanta TRACON
Fri 01:02:00 PM 33.8418 -84.1622 73° East  Level Estimated
Fri 01:02:36 PM 33.6333 -84.2500 90° East 242 278 6,800  Level Atlanta TRACON
Fri 01:03:00 PM 33.9100 -84.0734 54° Northeast  Level Estimated
Fri 01:03:36 PM 33.6333 -84.1667 90° East 255 293 9,800  Level Atlanta TRACON
Fri 01:04:00 PM 33.8923 -83.9542 100° East  Level FlightAware Approximate
Fri 01:04:36 PM 33.6500 -84.0833 76° East 320 368 11,400  Level Atlanta TRACON
Fri 01:05:00 PM 33.9610 -83.8659 48° Northeast  Level Estimated
Fri 01:05:01 PM 33.6689 -84.0539 52° Northeast 353 406 12,100  Level Atlanta Center
Fri 01:06:00 PM 34.0297 -83.7774 53° Northeast  Level Estimated
Fri 01:06:01 PM 33.7400 -83.9664 46° Northeast 371 427 14,000  Level Atlanta Center
Fri 01:07:01 PM 33.8108 -83.8739 47° Northeast 371 427 16,100 1,833 Climbing Atlanta Center
Fri 01:09:01 PM 33.9522 -83.6756 49° Northeast 385 443 19,500 1,667 Climbing Atlanta Center
Fri 01:10:01 PM 34.0231 -83.5700 51° Northeast 398 458 21,100 1,500 Climbing Atlanta Center
Fri 01:11:01 PM 34.0914 -83.4594 53° Northeast 403 464 22,500 1,350 Climbing Atlanta Center
Fri 01:12:01 PM 34.1700 -83.3358 52° Northeast 419 482 23,800 1,050 Climbing Atlanta Center
Fri 01:13:01 PM 34.2444 -83.2144 53° Northeast 425 489 24,600 950 Climbing Atlanta Center
Fri 01:14:01 PM 34.3208 -83.0956 52° Northeast 435 501 25,700 1,050 Climbing Atlanta Center
Fri 01:15:01 PM 34.3969 -82.9689 54° Northeast 452 520 26,700 1,050 Climbing Atlanta Center
Fri 01:16:01 PM 34.4772 -82.8469 51° Northeast 459 528 27,800 1,000 Climbing Atlanta Center
Fri 01:17:01 PM 34.5531 -82.7222 54° Northeast 469 540 28,700 600 Climbing Atlanta Center
Fri 01:18:01 PM 34.6289 -82.5897 55° Northeast 469 540 29,000 150 Climbing Atlanta Center
Fri 01:19:01 PM 34.7006 -82.4775 52° Northeast 464 534 29,000  Level Atlanta Center
Fri 01:20:01 PM 34.7781 -82.3519 53° Northeast 464 534 29,000  Level Atlanta Center
Fri 01:21:01 PM 34.8536 -82.2239 54° Northeast 464 534 29,000  Level Atlanta Center
Fri 01:22:01 PM 34.9411 -82.0853 52° Northeast 464 534 29,000  Level Atlanta Center
Fri 01:23:01 PM 35.0203 -81.9514 54° Northeast 470 541 29,000  Level Atlanta Center
Fri 01:24:01 PM 35.0931 -81.8175 56° Northeast 470 541 29,000  Level Atlanta Center
Fri 01:25:01 PM 35.1636 -81.6836 57° Northeast 477 549 29,000  Level Atlanta Center
Fri 01:26:01 PM 35.2361 -81.5467 57° Northeast 472 543 29,000  Level Atlanta Center
Fri 01:27:01 PM 35.3064 -81.4122 57° Northeast 472 543 29,000  Level Atlanta Center
Fri 01:28:01 PM 35.3764 -81.2778 57° Northeast 472 543 29,000  Level Atlanta Center
Fri 01:29:01 PM 35.4461 -81.1375 59° Northeast 472 543 29,000  Level Atlanta Center
Fri 01:30:01 PM 35.5200 -81.0022 56° Northeast 477 549 29,000  Level Atlanta Center
Fri 01:31:01 PM 35.5897 -80.8644 58° Northeast 477 549 29,000  Level Atlanta Center
Fri 01:32:01 PM 35.6592 -80.7314 57° Northeast 470 541 29,000  Level Atlanta Center
Fri 01:33:01 PM 35.7306 -80.5981 57° Northeast 470 541 29,000  Level Atlanta Center
Fri 01:34:01 PM 35.7975 -80.4647 58° Northeast 470 541 29,000  Level Atlanta Center
Fri 01:35:01 PM 35.8686 -80.3231 58° Northeast 470 541 29,000  Level Atlanta Center
Fri 01:37:23 PM 36.0331 -80.0047 57° Northeast 467 537 29,000  Level Washington Center
Fri 01:38:24 PM 36.1067 -79.8725 55° Northeast 461 531 29,000  Level Washington Center
Fri 01:39:24 PM 36.1803 -79.7403 55° Northeast 468 539 29,000  Level Washington Center
Fri 01:40:24 PM 36.2531 -79.6256 52° Northeast 468 539 29,000  Level Washington Center
Fri 01:41:23 PM 36.3469 -79.4936 49° Northeast 468 539 29,000  Level Washington Center
Fri 01:42:23 PM 36.4236 -79.3867 48° Northeast 468 539 29,000  Level Washington Center
Fri 01:43:24 PM 36.5108 -79.2642 48° Northeast 468 539 29,000  Level Washington Center
Fri 01:44:25 PM 36.5978 -79.1442 48° Northeast 468 539 29,000  Level Washington Center
Fri 01:45:23 PM 36.6914 -79.0136 48° Northeast 463 533 29,000  Level Washington Center
Fri 01:46:24 PM 36.7781 -78.8956 47° Northeast 463 533 29,000  Level Washington Center
Fri 01:47:25 PM 36.8628 -78.7747 49° Northeast 463 533 29,000  Level Washington Center
Fri 01:48:25 PM 36.9472 -78.6558 49° Northeast 458 527 29,000  Level Washington Center
Fri 01:49:00 PM 36.9788 -78.6055 49° Northeast  Level FlightAware Approximate
Fri 01:49:23 PM 37.0272 -78.5472 47° Northeast 458 527 29,000  Level Washington Center
Fri 01:50:24 PM 37.1094 -78.4281 49° Northeast 453 521 29,000  Level Washington Center
Fri 01:51:25 PM 37.1978 -78.3086 47° Northeast 453 521 29,000  Level Washington Center
Fri 01:52:23 PM 37.2903 -78.1736 49° Northeast 453 521 29,000  Level Washington Center
Fri 01:53:23 PM 37.3719 -78.0561 49° Northeast 453 521 29,000  Level Washington Center
Fri 01:54:23 PM 37.4558 -77.9333 49° Northeast 453 521 29,000  Level Washington Center
Fri 01:55:24 PM 37.5458 -77.8156 46° Northeast 453 521 29,000  Level Washington Center
Fri 01:56:24 PM 37.6456 -77.7214 37° Northeast 448 516 29,000  Level Washington Center
Fri 01:57:23 PM 37.7494 -77.6272 36° Northeast 448 516 29,000  Level Washington Center
Fri 01:58:23 PM 37.8508 -77.5353 36° Northeast 448 516 29,000 -595 Level Washington Center
Fri 01:59:24 PM 37.9525 -77.4458 35° Northeast 448 516 27,800 -1,131 Descending Washington Center
Fri 02:00:25 PM 38.0372 -77.3661 37° Northeast 437 503 26,700 -1,109 Descending Washington Center
Fri 02:01:23 PM 38.1322 -77.2786 36° Northeast 426 490 25,600 -1,119 Descending Washington Center
Fri 02:02:23 PM 38.2250 -77.1933 36° Northeast 421 484 24,500 -793 Descending Washington Center
Fri 02:03:24 PM 38.3158 -77.1108 35° Northeast 414 476 24,000 -246 Descending Washington Center
Fri 02:04:25 PM 38.4125 -77.0544 25° Northeast 381 438 24,000  Level Washington Center
Fri 02:05:23 PM 38.5169 -77.0272 12° North 381 438 24,000  Level Washington Center
Fri 02:06:23 PM 38.6197 -76.9919 15° North 381 438 24,000 -350 Level Washington Center
Fri 02:07:23 PM 38.6689 -76.8706 63° Northeast 358 412 23,300 -1,180 Descending Washington Center
Fri 02:08:25 PM 38.7036 -76.7408 71° East 353 406 21,600 -1,623 Descending Washington Center
Fri 02:09:25 PM 38.7339 -76.6003 75° East 376 433 20,000 -814 Descending Washington Center
Fri 02:10:23 PM 38.7600 -76.4647 76° East 386 444 20,000 -559 Level Washington Center
Fri 02:11:23 PM 38.7881 -76.3267 75° East 391 450 18,900 -1,190 Descending Washington Center
Fri 02:12:24 PM 38.8139 -76.2017 75° East 391 450 17,600 -1,636 Descending Washington Center
Fri 02:13:24 PM 38.8456 -76.0714 73° East 381 438 15,600 -1,339 Descending Washington Center
Fri 02:14:25 PM 38.8711 -75.9542 74° East 361 415 14,900 -347 Descending Washington Center
Fri 02:15:25 PM 38.9047 -75.8344 70° East 350 403 14,900 -655 Level Washington Center
Fri 02:16:24 PM 38.9800 -75.7519 40° Northeast 334 384 13,600 -1,462 Descending Washington Center
Fri 02:17:24 PM 39.0633 -75.6825 33° Northeast 334 384 12,000 -1,587 Descending Washington Center
Fri 02:18:25 PM 39.1592 -75.6667 North 334 384 10,400 -806 Descending Washington Center
Fri 02:20:45 PM 39.3500 -75.6000 15° North 275 316 9,300 -750 Descending Philadelphia TRACON
Fri 02:21:45 PM 39.4167 -75.5333 38° Northeast 262 302 7,900 -1,150 Descending Philadelphia TRACON
Fri 02:22:45 PM 39.4667 -75.4667 46° Northeast 256 295 7,000 -470 Descending Philadelphia TRACON
Fri 02:23:40 PM 39.5000 -75.4167 49° Northeast 208 239 7,000 -52 Level Philadelphia TRACON
Fri 02:24:40 PM 39.5333 -75.3500 57° Northeast 217 250 6,900 -476 Descending Philadelphia TRACON
Fri 02:25:46 PM 39.5833 -75.3167 27° Northeast 211 243 6,000 -429 Descending Philadelphia TRACON
Fri 02:26:46 PM 39.6500 -75.3333 349° North 222 255 6,000  Level Philadelphia TRACON
Fri 02:27:46 PM 39.7000 -75.3667 333° Northwest 221 254 6,000  Level Philadelphia TRACON
Fri 02:28:46 PM 39.7333 -75.4333 303° West 251 289 6,000 -350 Level Philadelphia TRACON
Fri 02:29:46 PM 39.7167 -75.5167 255° West 227 261 5,300 -800 Descending Philadelphia TRACON
Fri 02:30:46 PM 39.7000 -75.5833 252° West 202 232 4,400 -650 Descending Philadelphia TRACON
Fri 02:31:46 PM 39.7500 -75.6167 333° Northwest 189 217 4,000 -200 Descending Philadelphia TRACON
Fri 02:32:46 PM 39.8000 -75.5667 38° Northeast 180 207 4,000 -105 Level Philadelphia TRACON
Fri 02:33:40 PM 39.8167 -75.5167 67° East 178 205 3,800 -579 Descending Philadelphia TRACON
Fri 02:34:40 PM 39.8167 -75.4500 90° East 177 204 2,900 -950 Descending Philadelphia TRACON
Fri 02:35:40 PM 39.8333 -75.4000 67° East 173 199 1,900 -1,000 Descending Philadelphia TRACON

Login

Don't have an account? Register now (free) for customized features, flight alerts, and more!